sensor_id;sensor_type;location;lat;lon;timestamp;pressure;altitude;pressure_sealevel;temperature;humidity
42067;BME280;27734;47.028;28.820;2023-10-13T00:01:08;100605.83;;;14.24;61.53
42067;BME280;27734;47.028;28.820;2023-10-13T00:03:41;100612.86;;;14.24;61.46
42067;BME280;27734;47.028;28.820;2023-10-13T00:06:10;100610.19;;;14.22;61.20
42067;BME280;27734;47.028;28.820;2023-10-13T00:08:39;100604.03;;;14.22;61.86
42067;BME280;27734;47.028;28.820;2023-10-13T00:11:12;100609.27;;;14.20;61.12
42067;BME280;27734;47.028;28.820;2023-10-13T00:13:41;100610.12;;;14.19;61.40
42067;BME280;27734;47.028;28.820;2023-10-13T00:16:11;100609.20;;;14.17;61.51
42067;BME280;27734;47.028;28.820;2023-10-13T00:18:45;100602.09;;;14.14;61.74
42067;BME280;27734;47.028;28.820;2023-10-13T00:21:14;100605.58;;;14.12;62.06
42067;BME280;27734;47.028;28.820;2023-10-13T00:23:47;100605.50;;;14.09;62.09
42067;BME280;27734;47.028;28.820;2023-10-13T00:26:23;100601.07;;;14.08;61.81
42067;BME280;27734;47.028;28.820;2023-10-13T00:28:56;100610.67;;;14.04;62.31
42067;BME280;27734;47.028;28.820;2023-10-13T00:31:40;100618.41;;;13.96;61.40
42067;BME280;27734;47.028;28.820;2023-10-13T00:34:11;100611.34;;;13.95;61.85
42067;BME280;27734;47.028;28.820;2023-10-13T00:36:53;100613.94;;;13.94;61.73
42067;BME280;27734;47.028;28.820;2023-10-13T00:39:36;100611.30;;;13.94;61.94
42067;BME280;27734;47.028;28.820;2023-10-13T00:42:08;100613.94;;;13.94;62.33
42067;BME280;27734;47.028;28.820;2023-10-13T00:44:45;100605.14;;;13.93;62.75
42067;BME280;27734;47.028;28.820;2023-10-13T00:47:18;100603.31;;;13.91;62.31
42067;BME280;27734;47.028;28.820;2023-10-13T00:50:06;100608.55;;;13.89;62.57
42067;BME280;27734;47.028;28.820;2023-10-13T00:52:39;100613.83;;;13.89;62.39
42067;BME280;27734;47.028;28.820;2023-10-13T00:55:11;100612.91;;;13.87;62.97
42067;BME280;27734;47.028;28.820;2023-10-13T00:57:42;100618.19;;;13.87;62.52
42067;BME280;27734;47.028;28.820;2023-10-13T01:00:12;100620.86;;;13.89;63.00
42067;BME280;27734;47.028;28.820;2023-10-13T01:02:47;100626.09;;;13.87;62.46
42067;BME280;27734;47.028;28.820;2023-10-13T01:05:23;100624.23;;;13.83;62.75
42067;BME280;27734;47.028;28.820;2023-10-13T01:07:53;100626.80;;;13.80;63.31
42067;BME280;27734;47.028;28.820;2023-10-13T01:10:22;100632.95;;;13.80;62.68
42067;BME280;27734;47.028;28.820;2023-10-13T01:12:55;100629.43;;;13.80;62.89
42067;BME280;27734;47.028;28.820;2023-10-13T01:15:24;100621.48;;;13.78;63.24
42067;BME280;27734;47.028;28.820;2023-10-13T01:18:07;100622.36;;;13.79;63.14
42067;BME280;27734;47.028;28.820;2023-10-13T01:20:39;100622.36;;;13.79;63.57
42067;BME280;27734;47.028;28.820;2023-10-13T01:23:12;100624.95;;;13.77;62.92
42067;BME280;27734;47.028;28.820;2023-10-13T01:25:46;100630.27;;;13.79;62.94
42067;BME280;27734;47.028;28.820;2023-10-13T01:28:16;100616.24;;;13.80;63.13
42067;BME280;27734;47.028;28.820;2023-10-13T01:30:45;100624.11;;;13.78;63.48
42067;BME280;27734;47.028;28.820;2023-10-13T01:33:18;100617.95;;;13.78;63.28
42067;BME280;27734;47.028;28.820;2023-10-13T01:35:54;100612.72;;;13.79;63.42
42067;BME280;27734;47.028;28.820;2023-10-13T01:38:25;100606.46;;;13.76;63.39
42067;BME280;27734;47.028;28.820;2023-10-13T01:40:56;100609.05;;;13.74;63.35
42067;BME280;27734;47.028;28.820;2023-10-13T01:43:26;100611.73;;;13.76;63.60
42067;BME280;27734;47.028;28.820;2023-10-13T01:45:55;100612.69;;;13.78;63.52
42067;BME280;27734;47.028;28.820;2023-10-13T01:48:24;100607.41;;;13.78;63.43
42067;BME280;27734;47.028;28.820;2023-10-13T01:50:56;100610.89;;;13.77;63.82
42067;BME280;27734;47.028;28.820;2023-10-13T01:53:28;100613.49;;;13.75;63.83
42067;BME280;27734;47.028;28.820;2023-10-13T01:55:57;100624.00;;;13.74;64.24
42067;BME280;27734;47.028;28.820;2023-10-13T01:58:26;100617.81;;;13.72;64.56
42067;BME280;27734;47.028;28.820;2023-10-13T02:00:57;100625.72;;;13.72;64.05
42067;BME280;27734;47.028;28.820;2023-10-13T02:03:27;100626.56;;;13.71;64.15
42067;BME280;27734;47.028;28.820;2023-10-13T02:05:57;100629.20;;;13.71;64.83
42067;BME280;27734;47.028;28.820;2023-10-13T02:08:33;100633.63;;;13.72;64.48
42067;BME280;27734;47.028;28.820;2023-10-13T02:11:07;100638.03;;;13.73;64.33
42067;BME280;27734;47.028;28.820;2023-10-13T02:13:38;100642.46;;;13.74;64.61
42067;BME280;27734;47.028;28.820;2023-10-13T02:16:16;100642.46;;;13.74;64.61
42067;BME280;27734;47.028;28.820;2023-10-13T02:18:49;100638.06;;;13.74;64.98
42067;BME280;27734;47.028;28.820;2023-10-13T02:21:19;100632.75;;;13.73;64.77
42067;BME280;27734;47.028;28.820;2023-10-13T02:23:48;100645.98;;;13.74;64.66
42067;BME280;27734;47.028;28.820;2023-10-13T02:26:28;100642.46;;;13.74;64.67
42067;BME280;27734;47.028;28.820;2023-10-13T02:29:00;100639.78;;;13.72;65.11
42067;BME280;27734;47.028;28.820;2023-10-13T02:31:31;100650.30;;;13.71;65.22
42067;BME280;27734;47.028;28.820;2023-10-13T02:33:59;100652.02;;;13.69;65.04
42067;BME280;27734;47.028;28.820;2023-10-13T02:36:29;100662.48;;;13.65;65.42
42067;BME280;27734;47.028;28.820;2023-10-13T02:39:05;100658.84;;;13.60;64.58
42067;BME280;27734;47.028;28.820;2023-10-13T02:41:36;100658.84;;;13.60;64.79
42067;BME280;27734;47.028;28.820;2023-10-13T02:44:06;100657.84;;;13.57;65.59
42067;BME280;27734;47.028;28.820;2023-10-13T02:46:35;100662.84;;;13.46;65.31
42067;BME280;27734;47.028;28.820;2023-10-13T02:49:07;100648.45;;;13.33;65.36
42067;BME280;27734;47.028;28.820;2023-10-13T02:51:38;100646.45;;;13.26;65.65
42067;BME280;27734;47.028;28.820;2023-10-13T02:54:10;100642.72;;;13.18;65.40
42067;BME280;27734;47.028;28.820;2023-10-13T02:56:40;100643.34;;;13.07;65.44
42067;BME280;27734;47.028;28.820;2023-10-13T02:59:17;100640.50;;;13.00;65.36
42067;BME280;27734;47.028;28.820;2023-10-13T03:01:48;100649.06;;;12.92;65.50
42067;BME280;27734;47.028;28.820;2023-10-13T03:04:20;100650.72;;;12.89;65.46
42067;BME280;27734;47.028;28.820;2023-10-13T03:06:52;100653.97;;;12.80;65.08
42067;BME280;27734;47.028;28.820;2023-10-13T03:09:21;100653.00;;;12.76;65.98
42067;BME280;27734;47.028;28.820;2023-10-13T03:11:50;100651.91;;;12.70;65.72
42067;BME280;27734;47.028;28.820;2023-10-13T03:14:20;100644.00;;;12.70;66.39
42067;BME280;27734;47.028;28.820;2023-10-13T03:16:56;100647.64;;;12.73;66.17
42067;BME280;27734;47.028;28.820;2023-10-13T03:19:30;100651.81;;;12.67;66.05
42067;BME280;27734;47.028;28.820;2023-10-13T03:22:02;100646.40;;;12.61;66.23
42067;BME280;27734;47.028;28.820;2023-10-13T03:24:37;100644.42;;;12.53;66.37
42067;BME280;27734;47.028;28.820;2023-10-13T03:27:13;100649.40;;;12.44;66.88
42067;BME280;27734;47.028;28.820;2023-10-13T03:29:45;100647.42;;;12.37;66.54
42067;BME280;27734;47.028;28.820;2023-10-13T03:32:16;100655.98;;;12.30;66.95
42067;BME280;27734;47.028;28.820;2023-10-13T03:34:46;100658.56;;;12.28;67.25
42067;BME280;27734;47.028;28.820;2023-10-13T03:37:20;100651.51;;;12.27;66.99
42067;BME280;27734;47.028;28.820;2023-10-13T03:40:09;100661.25;;;12.30;67.47
42067;BME280;27734;47.028;28.820;2023-10-13T03:43:02;100658.47;;;12.25;67.14
42067;BME280;27734;47.028;28.820;2023-10-13T03:45:33;100672.41;;;12.22;67.63
42067;BME280;27734;47.028;28.820;2023-10-13T03:48:08;100676.59;;;12.16;67.74
42067;BME280;27734;47.028;28.820;2023-10-13T03:50:49;100679.03;;;12.10;67.62
42067;BME280;27734;47.028;28.820;2023-10-13T03:53:30;100683.20;;;12.03;67.39
42067;BME280;27734;47.028;28.820;2023-10-13T03:56:01;100683.05;;;11.98;67.94
42067;BME280;27734;47.028;28.820;2023-10-13T03:58:40;100695.28;;;11.98;68.15
42067;BME280;27734;47.028;28.820;2023-10-13T04:01:10;100684.77;;;11.98;67.92
42067;BME280;27734;47.028;28.820;2023-10-13T04:03:41;100679.55;;;11.99;67.80
42067;BME280;27734;47.028;28.820;2023-10-13T04:06:25;100676.05;;;11.99;68.30
42067;BME280;27734;47.028;28.820;2023-10-13T04:09:17;100681.36;;;12.00;67.92
42067;BME280;27734;47.028;28.820;2023-10-13T04:12:05;100690.23;;;12.04;68.42
42067;BME280;27734;47.028;28.820;2023-10-13T04:15:09;100684.19;;;12.07;68.47
42067;BME280;27734;47.028;28.820;2023-10-13T04:17:46;100688.72;;;12.11;68.33
42067;BME280;27734;47.028;28.820;2023-10-13T04:20:17;100694.05;;;12.14;68.47
42067;BME280;27734;47.028;28.820;2023-10-13T04:23:13;100701.20;;;12.18;68.13
42067;BME280;27734;47.028;28.820;2023-10-13T04:25:54;100699.45;;;12.18;68.50
42067;BME280;27734;47.028;28.820;2023-10-13T04:28:49;100699.55;;;12.21;68.38
42067;BME280;27734;47.028;28.820;2023-10-13T04:31:21;100697.94;;;12.25;68.18
42067;BME280;27734;47.028;28.820;2023-10-13T04:34:13;100698.77;;;12.24;68.28
42067;BME280;27734;47.028;28.820;2023-10-13T04:36:56;100703.15;;;12.23;68.22
42067;BME280;27734;47.028;28.820;2023-10-13T04:39:45;100703.10;;;12.22;68.43
42067;BME280;27734;47.028;28.820;2023-10-13T04:42:18;100706.52;;;12.19;68.40
42067;BME280;27734;47.028;28.820;2023-10-13T04:45:10;100709.20;;;12.21;68.49
42067;BME280;27734;47.028;28.820;2023-10-13T04:48:06;100712.66;;;12.20;68.64
42067;BME280;27734;47.028;28.820;2023-10-13T04:51:00;100715.29;;;12.20;68.37
42067;BME280;27734;47.028;28.820;2023-10-13T04:53:48;100724.30;;;12.27;68.24
42067;BME280;27734;47.028;28.820;2023-10-13T04:56:32;100726.06;;;12.28;68.42
42067;BME280;27734;47.028;28.820;2023-10-13T04:59:19;100735.66;;;12.26;68.34
42067;BME280;27734;47.028;28.820;2023-10-13T05:02:02;100737.40;;;12.25;68.56
42067;BME280;27734;47.028;28.820;2023-10-13T05:04:51;100740.91;;;12.26;68.52
42067;BME280;27734;47.028;28.820;2023-10-13T05:07:49;100747.06;;;12.26;68.49
42067;BME280;27734;47.028;28.820;2023-10-13T05:10:36;100747.98;;;12.27;68.71
42067;BME280;27734;47.028;28.820;2023-10-13T05:13:24;100754.22;;;12.30;68.60
42067;BME280;27734;47.028;28.820;2023-10-13T05:16:20;100764.80;;;12.32;68.72
42067;BME280;27734;47.028;28.820;2023-10-13T05:19:07;100768.47;;;12.37;68.40
42067;BME280;27734;47.028;28.820;2023-10-13T05:21:54;100775.63;;;12.41;68.65
42067;BME280;27734;47.028;28.820;2023-10-13T05:24:41;100780.98;;;12.44;68.62
42067;BME280;27734;47.028;28.820;2023-10-13T05:27:34;100780.16;;;12.45;68.70
42067;BME280;27734;47.028;28.820;2023-10-13T05:30:36;100780.20;;;12.47;68.90
42067;BME280;27734;47.028;28.820;2023-10-13T05:33:26;100786.45;;;12.50;69.07
42067;BME280;27734;47.028;28.820;2023-10-13T05:36:14;100793.62;;;12.54;68.79
42067;BME280;27734;47.028;28.820;2023-10-13T05:39:05;100797.23;;;12.58;68.82
42067;BME280;27734;47.028;28.820;2023-10-13T05:41:54;100804.39;;;12.62;68.67
42067;BME280;27734;47.028;28.820;2023-10-13T05:44:43;100800.27;;;12.70;68.69
42067;BME280;27734;47.028;28.820;2023-10-13T05:47:24;100803.04;;;12.75;68.97
42067;BME280;27734;47.028;28.820;2023-10-13T05:50:12;100811.82;;;12.75;68.76
42067;BME280;27734;47.028;28.820;2023-10-13T05:52:56;100805.87;;;12.81;68.55
42067;BME280;27734;47.028;28.820;2023-10-13T05:56:03;100816.55;;;12.86;68.64
42067;BME280;27734;47.028;28.820;2023-10-13T05:58:51;100821.09;;;12.91;68.75
42067;BME280;27734;47.028;28.820;2023-10-13T06:01:39;100816.79;;;12.93;68.67
42067;BME280;27734;47.028;28.820;2023-10-13T06:04:29;100808.98;;;12.97;68.63
42067;BME280;27734;47.028;28.820;2023-10-13T06:07:16;100810.10;;;13.05;68.51
42067;BME280;27734;47.028;28.820;2023-10-13T06:10:04;100809.41;;;13.10;68.62
42067;BME280;27734;47.028;28.820;2023-10-13T06:12:56;100811.22;;;13.13;68.88
42067;BME280;27734;47.028;28.820;2023-10-13T06:15:52;100802.75;;;13.23;69.06
42067;BME280;27734;47.028;28.820;2023-10-13T06:18:41;100804.66;;;13.29;68.24
42067;BME280;27734;47.028;28.820;2023-10-13T06:21:28;100805.66;;;13.33;68.24
42067;BME280;27734;47.028;28.820;2023-10-13T06:24:18;100811.98;;;13.38;68.79
42067;BME280;27734;47.028;28.820;2023-10-13T06:27:05;100799.78;;;13.41;68.50
42067;BME280;27734;47.028;28.820;2023-10-13T06:29:52;100786.73;;;13.46;68.37
42067;BME280;27734;47.028;28.820;2023-10-13T06:32:22;100787.95;;;13.57;68.96
42067;BME280;27734;47.028;28.820;2023-10-13T06:34:53;100824.30;;;13.69;68.50
42067;BME280;27734;47.028;28.820;2023-10-13T06:37:25;100827.98;;;13.76;68.80
42067;BME280;27734;47.028;28.820;2023-10-13T06:39:59;100819.24;;;13.77;68.44
42067;BME280;27734;47.028;28.820;2023-10-13T06:42:35;100843.23;;;13.86;67.81
42067;BME280;27734;47.028;28.820;2023-10-13T06:45:53;100848.64;;;13.91;68.03
42067;BME280;27734;47.028;28.820;2023-10-13T06:48:55;100833.98;;;14.02;68.53
42067;BME280;27734;47.028;28.820;2023-10-13T06:51:27;100847.43;;;14.11;68.40
42067;BME280;27734;47.028;28.820;2023-10-13T06:54:12;100841.55;;;14.22;68.55
42067;BME280;27734;47.028;28.820;2023-10-13T06:56:48;100845.23;;;14.28;68.13
42067;BME280;27734;47.028;28.820;2023-10-13T06:59:21;100846.28;;;14.35;68.60
42067;BME280;27734;47.028;28.820;2023-10-13T07:01:56;100857.04;;;14.43;68.01
42067;BME280;27734;47.028;28.820;2023-10-13T07:04:31;100862.40;;;14.46;67.97
42067;BME280;27734;47.028;28.820;2023-10-13T07:07:01;100864.92;;;14.41;67.75
42067;BME280;27734;47.028;28.820;2023-10-13T07:09:31;100865.64;;;14.34;67.82
42067;BME280;27734;47.028;28.820;2023-10-13T07:12:19;100859.48;;;14.35;68.20
42067;BME280;27734;47.028;28.820;2023-10-13T07:14:55;100866.59;;;14.37;68.83
42067;BME280;27734;47.028;28.820;2023-10-13T07:17:39;100858.72;;;14.39;68.73
42067;BME280;27734;47.028;28.820;2023-10-13T07:20:10;100850.95;;;14.45;68.83
42067;BME280;27734;47.028;28.820;2023-10-13T07:22:43;100845.87;;;14.53;68.27
42067;BME280;27734;47.028;28.820;2023-10-13T07:25:26;100840.89;;;14.64;68.17
42067;BME280;27734;47.028;28.820;2023-10-13T07:27:56;100850.72;;;14.69;69.08
42067;BME280;27734;47.028;28.820;2023-10-13T07:30:27;100855.93;;;14.66;69.16
42067;BME280;27734;47.028;28.820;2023-10-13T07:32:56;100850.69;;;14.68;69.18
42067;BME280;27734;47.028;28.820;2023-10-13T07:35:27;100849.88;;;14.72;68.20
42067;BME280;27734;47.028;28.820;2023-10-13T07:37:59;100849.15;;;14.78;68.32
42067;BME280;27734;47.028;28.820;2023-10-13T07:40:28;100840.45;;;14.83;69.23
42067;BME280;27734;47.028;28.820;2023-10-13T07:43:24;100865.27;;;14.88;68.78
42067;BME280;27734;47.028;28.820;2023-10-13T07:46:07;100861.78;;;14.91;68.31
42067;BME280;27734;47.028;28.820;2023-10-13T07:48:40;100859.28;;;14.97;69.21
42067;BME280;27734;47.028;28.820;2023-10-13T07:51:19;100875.21;;;15.00;69.18
42067;BME280;27734;47.028;28.820;2023-10-13T07:53:50;100874.33;;;15.00;69.05
42067;BME280;27734;47.028;28.820;2023-10-13T07:56:22;100873.59;;;15.05;69.33
42067;BME280;27734;47.028;28.820;2023-10-13T07:58:59;100875.61;;;15.17;69.43
42067;BME280;27734;47.028;28.820;2023-10-13T08:01:28;100875.03;;;15.31;69.45
42067;BME280;27734;47.028;28.820;2023-10-13T08:03:59;100878.94;;;15.48;68.83
42067;BME280;27734;47.028;28.820;2023-10-13T08:06:37;100876.59;;;15.62;68.83
42067;BME280;27734;47.028;28.820;2023-10-13T08:09:09;100871.49;;;15.71;68.41
42067;BME280;27734;47.028;28.820;2023-10-13T08:11:55;100875.21;;;15.79;69.10
42067;BME280;27734;47.028;28.820;2023-10-13T08:14:27;100877.13;;;15.87;68.21
42067;BME280;27734;47.028;28.820;2023-10-13T08:17:04;100877.31;;;15.96;69.10
42067;BME280;27734;47.028;28.820;2023-10-13T08:19:49;100879.35;;;16.11;68.49
42067;BME280;27734;47.028;28.820;2023-10-13T08:22:24;100875.26;;;16.27;69.01
42067;BME280;27734;47.028;28.820;2023-10-13T08:25:01;100877.25;;;16.40;68.79
42067;BME280;27734;47.028;28.820;2023-10-13T08:28:10;100877.30;;;16.43;68.25
42067;BME280;27734;47.028;28.820;2023-10-13T08:31:15;100873.74;;;16.41;68.09
42067;BME280;27734;47.028;28.820;2023-10-13T08:33:56;100887.20;;;16.53;67.66
42067;BME280;27734;47.028;28.820;2023-10-13T08:36:38;100887.42;;;16.66;68.11
42067;BME280;27734;47.028;28.820;2023-10-13T08:39:07;100891.11;;;16.76;67.49
42067;BME280;27734;47.028;28.820;2023-10-13T08:42:05;100889.55;;;16.87;67.73
42067;BME280;27734;47.028;28.820;2023-10-13T08:44:46;100882.62;;;16.97;67.58
42067;BME280;27734;47.028;28.820;2023-10-13T08:47:27;100898.67;;;17.06;67.40
42067;BME280;27734;47.028;28.820;2023-10-13T08:50:05;100889.09;;;17.14;67.80
42067;BME280;27734;47.028;28.820;2023-10-13T08:52:57;100892.80;;;17.25;67.20
42067;BME280;27734;47.028;28.820;2023-10-13T08:55:28;100884.14;;;17.40;67.33
42067;BME280;27734;47.028;28.820;2023-10-13T08:58:17;100883.59;;;17.65;67.28
42067;BME280;27734;47.028;28.820;2023-10-13T09:00:51;100889.19;;;17.88;67.29
42067;BME280;27734;47.028;28.820;2023-10-13T09:03:27;100891.23;;;18.10;66.86
42067;BME280;27734;47.028;28.820;2023-10-13T09:06:15;100890.48;;;18.22;66.23
42067;BME280;27734;47.028;28.820;2023-10-13T09:08:48;100897.70;;;18.32;65.99
42067;BME280;27734;47.028;28.820;2023-10-13T09:11:37;100896.05;;;18.47;66.38
42067;BME280;27734;47.028;28.820;2023-10-13T09:14:53;100892.60;;;18.59;65.54
42067;BME280;27734;47.028;28.820;2023-10-13T09:17:26;100905.06;;;18.64;65.34
42067;BME280;27734;47.028;28.820;2023-10-13T09:20:05;100897.98;;;18.66;64.84
42067;BME280;27734;47.028;28.820;2023-10-13T09:22:57;100895.36;;;18.69;64.78
42067;BME280;27734;47.028;28.820;2023-10-13T09:25:43;100896.30;;;18.73;65.15
42067;BME280;27734;47.028;28.820;2023-10-13T09:28:27;100894.56;;;18.78;64.83
42067;BME280;27734;47.028;28.820;2023-10-13T09:30:56;100890.20;;;18.85;64.22
42067;BME280;27734;47.028;28.820;2023-10-13T09:33:28;100887.61;;;18.94;64.60
42067;BME280;27734;47.028;28.820;2023-10-13T09:35:57;100897.45;;;19.03;63.98
42067;BME280;27734;47.028;28.820;2023-10-13T09:38:28;100896.59;;;19.12;63.73
42067;BME280;27734;47.028;28.820;2023-10-13T09:40:58;100891.32;;;19.18;63.37
42067;BME280;27734;47.028;28.820;2023-10-13T09:43:31;100888.70;;;19.24;63.97
42067;BME280;27734;47.028;28.820;2023-10-13T09:46:01;100888.77;;;19.33;63.27
42067;BME280;27734;47.028;28.820;2023-10-13T09:48:51;100887.05;;;19.42;63.64
42067;BME280;27734;47.028;28.820;2023-10-13T09:51:36;100882.64;;;19.47;62.99
42067;BME280;27734;47.028;28.820;2023-10-13T09:54:17;100882.66;;;19.51;63.68
42067;BME280;27734;47.028;28.820;2023-10-13T09:56:51;100878.24;;;19.56;63.48
42067;BME280;27734;47.028;28.820;2023-10-13T09:59:35;100877.39;;;19.62;62.36
42067;BME280;27734;47.028;28.820;2023-10-13T10:02:09;100873.85;;;19.69;62.58
42067;BME280;27734;47.028;28.820;2023-10-13T10:04:52;100868.55;;;19.72;61.96
42067;BME280;27734;47.028;28.820;2023-10-13T10:07:25;100873.85;;;19.69;62.03
42067;BME280;27734;47.028;28.820;2023-10-13T10:10:01;100870.31;;;19.69;62.17
42067;BME280;27734;47.028;28.820;2023-10-13T10:12:41;100877.45;;;19.74;61.47
42067;BME280;27734;47.028;28.820;2023-10-13T10:15:28;100864.20;;;19.84;61.97
42067;BME280;27734;47.028;28.820;2023-10-13T10:18:02;100869.56;;;19.95;61.44
42067;BME280;27734;47.028;28.820;2023-10-13T10:20:41;100863.33;;;19.94;62.03
42067;BME280;27734;47.028;28.820;2023-10-13T10:23:27;100873.98;;;19.92;61.58
42067;BME280;27734;47.028;28.820;2023-10-13T10:26:16;100865.09;;;19.89;61.20
42067;BME280;27734;47.028;28.820;2023-10-13T10:28:57;100875.75;;;19.89;61.13
42067;BME280;27734;47.028;28.820;2023-10-13T10:31:43;100860.66;;;19.92;61.29
42067;BME280;27734;47.028;28.820;2023-10-13T10:34:32;100859.81;;;20.04;61.45
42067;BME280;27734;47.028;28.820;2023-10-13T10:37:07;100856.27;;;20.15;61.64
42067;BME280;27734;47.028;28.820;2023-10-13T10:39:50;100858.95;;;20.28;60.77
42067;BME280;27734;47.028;28.820;2023-10-13T10:42:26;100854.55;;;20.40;60.76
42067;BME280;27734;47.028;28.820;2023-10-13T10:44:59;100847.44;;;20.46;60.93
42067;BME280;27734;47.028;28.820;2023-10-13T10:47:46;100853.66;;;20.64;61.30
42067;BME280;27734;47.028;28.820;2023-10-13T10:53:43;100836.80;;;20.85;60.39
42067;BME280;27734;47.028;28.820;2023-10-13T10:56:18;100832.34;;;20.93;60.03
42067;BME280;27734;47.028;28.820;2023-10-13T10:58:58;100834.99;;;21.01;60.23
42067;BME280;27734;47.028;28.820;2023-10-13T11:01:31;100834.98;;;21.07;59.96
42067;BME280;27734;47.028;28.820;2023-10-13T11:04:29;100824.30;;;21.10;60.22
42067;BME280;27734;47.028;28.820;2023-10-13T11:07:05;100834.97;;;21.13;60.34
42067;BME280;27734;47.028;28.820;2023-10-13T11:09:38;100815.37;;;21.17;60.20
42067;BME280;27734;47.028;28.820;2023-10-13T11:12:17;100818.91;;;21.29;60.13
42067;BME280;27734;47.028;28.820;2023-10-13T11:15:06;100820.66;;;21.33;59.48
42067;BME280;27734;47.028;28.820;2023-10-13T11:18:05;100818.89;;;21.36;59.42
42067;BME280;27734;47.028;28.820;2023-10-13T11:20:46;100817.95;;;21.42;58.40
42067;BME280;27734;47.028;28.820;2023-10-13T11:23:24;100817.06;;;21.46;58.34
42067;BME280;27734;47.028;28.820;2023-10-13T11:26:00;100814.41;;;21.51;58.95
42067;BME280;27734;47.028;28.820;2023-10-13T11:28:45;100832.20;;;21.53;58.26
42067;BME280;27734;47.028;28.820;2023-10-13T11:33:55;100819.73;;;21.54;57.97
42067;BME280;27734;47.028;28.820;2023-10-13T11:36:46;100820.63;;;21.50;58.15
42067;BME280;27734;47.028;28.820;2023-10-13T11:39:16;100814.41;;;21.43;56.98
42067;BME280;27734;47.028;28.820;2023-10-13T11:44:45;100818.91;;;21.29;56.62
42067;BME280;27734;47.028;28.820;2023-10-13T11:47:16;100819.80;;;21.26;57.18
42067;BME280;27734;47.028;28.820;2023-10-13T11:50:21;100814.47;;;21.25;57.29
42067;BME280;27734;47.028;28.820;2023-10-13T11:53:07;100811.80;;;21.25;57.31
42067;BME280;27734;47.028;28.820;2023-10-13T11:55:43;100805.59;;;21.23;56.70
42067;BME280;27734;47.028;28.820;2023-10-13T11:58:13;100807.34;;;21.24;57.34
42067;BME280;27734;47.028;28.820;2023-10-13T12:00:46;100803.79;;;21.26;57.17
42067;BME280;27734;47.028;28.820;2023-10-13T12:03:36;100809.13;;;21.28;56.66
42067;BME280;27734;47.028;28.820;2023-10-13T12:06:26;100800.25;;;21.23;57.12
42067;BME280;27734;47.028;28.820;2023-10-13T12:09:05;100801.13;;;21.22;56.07
42067;BME280;27734;47.028;28.820;2023-10-13T12:11:47;100806.47;;;21.22;56.62
42067;BME280;27734;47.028;28.820;2023-10-13T12:14:19;100797.59;;;21.21;56.72
42067;BME280;27734;47.028;28.820;2023-10-13T12:16:52;100800.26;;;21.21;55.92
42067;BME280;27734;47.028;28.820;2023-10-13T12:19:25;100798.47;;;21.18;56.59
42067;BME280;27734;47.028;28.820;2023-10-13T12:22:00;100791.35;;;21.17;56.18
42067;BME280;27734;47.028;28.820;2023-10-13T12:24:34;100797.60;;;21.16;56.18
42067;BME280;27734;47.028;28.820;2023-10-13T12:27:11;100800.27;;;21.16;56.30
42067;BME280;27734;47.028;28.820;2023-10-13T12:29:49;100800.27;;;21.16;56.47
42067;BME280;27734;47.028;28.820;2023-10-13T12:32:20;100787.80;;;21.18;56.60
42067;BME280;27734;47.028;28.820;2023-10-13T12:34:53;100798.47;;;21.22;55.91
42067;BME280;27734;47.028;28.820;2023-10-13T12:37:29;100802.01;;;21.22;55.76
42067;BME280;27734;47.028;28.820;2023-10-13T12:40:21;100795.78;;;21.25;55.90
42067;BME280;27734;47.028;28.820;2023-10-13T12:43:08;100798.44;;;21.29;56.35
42067;BME280;27734;47.028;28.820;2023-10-13T12:45:55;100800.21;;;21.35;55.94
42067;BME280;27734;47.028;28.820;2023-10-13T12:48:46;100787.72;;;21.40;55.83
42067;BME280;27734;47.028;28.820;2023-10-13T12:51:46;100803.72;;;21.52;55.00
42067;BME280;27734;47.028;28.820;2023-10-13T12:54:23;100799.22;;;21.62;55.14
42067;BME280;27734;47.028;28.820;2023-10-13T12:57:07;100802.72;;;21.72;55.61
42067;BME280;27734;47.028;28.820;2023-10-13T12:59:41;100792.90;;;21.80;55.42
42067;BME280;27734;47.028;28.820;2023-10-13T13:02:11;100795.57;;;21.80;54.57
42067;BME280;27734;47.028;28.820;2023-10-13T13:04:48;100798.22;;;21.83;55.22
42067;BME280;27734;47.028;28.820;2023-10-13T13:07:23;100808.00;;;21.81;54.77
42067;BME280;27734;47.028;28.820;2023-10-13T13:10:00;100809.83;;;21.76;54.42
42067;BME280;27734;47.028;28.820;2023-10-13T13:12:31;100802.73;;;21.69;54.02
42067;BME280;27734;47.028;28.820;2023-10-13T13:15:05;100811.68;;;21.63;54.17
42067;BME280;27734;47.028;28.820;2023-10-13T13:17:39;100816.13;;;21.60;54.39
42067;BME280;27734;47.028;28.820;2023-10-13T13:20:10;100814.39;;;21.54;53.68
42067;BME280;27734;47.028;28.820;2023-10-13T13:22:39;100807.23;;;21.59;54.32
42067;BME280;27734;47.028;28.820;2023-10-13T13:25:09;100800.09;;;21.61;53.57
42067;BME280;27734;47.028;28.820;2023-10-13T13:27:39;100801.87;;;21.65;54.05
42067;BME280;27734;47.028;28.820;2023-10-13T13:30:13;100807.19;;;21.70;54.20
42067;BME280;27734;47.028;28.820;2023-10-13T13:32:44;100810.73;;;21.70;54.13
42067;BME280;27734;47.028;28.820;2023-10-13T13:35:14;100813.42;;;21.67;54.16
42067;BME280;27734;47.028;28.820;2023-10-13T13:37:47;100812.56;;;21.64;54.32
42067;BME280;27734;47.028;28.820;2023-10-13T13:40:18;100813.50;;;21.57;53.47
42067;BME280;27734;47.028;28.820;2023-10-13T13:42:50;100816.19;;;21.52;53.94
42067;BME280;27734;47.028;28.820;2023-10-13T13:45:19;100817.95;;;21.50;53.51
42067;BME280;27734;47.028;28.820;2023-10-13T13:48:00;100817.06;;;21.46;53.52